Airfield :
LOGIN :

Register | Disclaimer

   EN    FR    IT 

 










Legend :    VFR   Marginal VFR   IFR   Intensive IFR   Very Intensive IFR
Visi :
Ceiling :
>= 8 km
>= 3000ft
5 to 8 km
1000 to 3000 ft
1500m to 5 km
500 to 1000 ft
800 to 1500m
200 to 500 ft
< 800m
< 200 ft
Symbols :   Thunderstorms  Fog  Heavy snow  Heavy precipitations  Wind > 20 kt
SIGMETs :     Misc.  Thunderstorms  Icing  Turbulence  Mountain Waves  Volcanic Ashes






- Airport Elevation : 204 ft
- IATA code : AGF


LFBA - Agen

CURRENT METAR :
  • 041530Z AUTO 28014KT 240V310 9999 FEW030/// SCT035/// BKN050/// ///TCU 23/16 Q1014 TEMPO 27020G30KT 4000 SHRA FEW030CB BKN035TCU

EXPIRED METARs :
  • 041500Z AUTO 28012KT 260V320 9999 -RA FEW033 BKN042 BKN048 22/17 Q1014 TEMPO 27020G30KT 4000 SHRA FEW030CB BKN035TCU
  • 041430Z AUTO 28013KT 9999 0900 R29/P2000 // FEW040/// BKN047/// BKN058/// ///TCU 23/15 Q1014
  • 041400Z AUTO 27013KT 230V290 9999 FEW041 BKN068 24/16 Q1014 TEMPO 27015G25KT 4000 SHRA FEW025CB BKN030TCU
  • 041330Z AUTO 26014KT 230V300 5000 0800 R29/P2000 // FEW040/// ///CB 25/16 Q1014
  • 041300Z AUTO 26014KT 230V300 9999 1500 FEW035/// SCT043/// BKN072/// ///CB 25/15 Q1014 TEMPO 27015G25KT 4000 SHRA

TAF TAF LFBA
Valid from the 04 at 15:00 until the 05 at 00:00 UTC


041400Z 0415/0424 27015KT 9999 BKN040
TEMPO 0415/0418 27020G30KT 4000 SHRA FEW030CB BKN035TCU
BECMG 0422/0424 24005KT



MET'MAP, your aeronautical weather chart ! - Copyright ORBIFLY December 2007 - Disclaimer

ORBIFLY MET'MAP TEAM :

Programming & Development : Alexandra Zaïnal
Concept & original design : Baudouin d'Aumeries
Assistance for programming : Marc-Olivier Méhu
Technical & hardware support : Manuel Goepfert

Contact : metmap@orbifly.com




SOURCES & CREDITS :

   NOAA